sensor_id;sensor_type;location;lat;lon;timestamp;temperature;humidity
3628;DHT22;1830;49.000;12.074;2024-01-30T00:01:03;0.90;99.90
3628;DHT22;1830;49.000;12.074;2024-01-30T00:03:30;0.90;99.90
3628;DHT22;1830;49.000;12.074;2024-01-30T00:05:57;0.90;99.90
3628;DHT22;1830;49.000;12.074;2024-01-30T00:08:23;0.90;99.90
3628;DHT22;1830;49.000;12.074;2024-01-30T00:10:50;1.00;99.90
3628;DHT22;1830;49.000;12.074;2024-01-30T00:13:18;1.00;99.90
3628;DHT22;1830;49.000;12.074;2024-01-30T00:15:45;1.10;99.90
3628;DHT22;1830;49.000;12.074;2024-01-30T00:18:12;1.10;99.90
3628;DHT22;1830;49.000;12.074;2024-01-30T00:20:39;1.00;99.90
3628;DHT22;1830;49.000;12.074;2024-01-30T00:23:06;1.10;99.90
3628;DHT22;1830;49.000;12.074;2024-01-30T00:25:32;1.00;99.90
3628;DHT22;1830;49.000;12.074;2024-01-30T00:28:00;1.00;99.90
3628;DHT22;1830;49.000;12.074;2024-01-30T00:30:28;1.00;99.90
3628;DHT22;1830;49.000;12.074;2024-01-30T00:32:55;1.00;99.90
3628;DHT22;1830;49.000;12.074;2024-01-30T00:35:21;1.00;99.90
3628;DHT22;1830;49.000;12.074;2024-01-30T00:37:48;1.00;99.90
3628;DHT22;1830;49.000;12.074;2024-01-30T00:40:15;1.00;99.90
3628;DHT22;1830;49.000;12.074;2024-01-30T00:42:43;1.00;99.90
3628;DHT22;1830;49.000;12.074;2024-01-30T00:45:13;1.10;99.90
3628;DHT22;1830;49.000;12.074;2024-01-30T00:47:42;1.10;99.90
3628;DHT22;1830;49.000;12.074;2024-01-30T00:50:09;1.10;99.90
3628;DHT22;1830;49.000;12.074;2024-01-30T00:52:36;1.10;99.90
3628;DHT22;1830;49.000;12.074;2024-01-30T00:55:05;1.10;99.90
3628;DHT22;1830;49.000;12.074;2024-01-30T00:57:32;1.00;99.90
3628;DHT22;1830;49.000;12.074;2024-01-30T00:59:59;1.00;99.90
3628;DHT22;1830;49.000;12.074;2024-01-30T01:02:25;1.10;99.90
3628;DHT22;1830;49.000;12.074;2024-01-30T01:04:54;1.10;99.90
3628;DHT22;1830;49.000;12.074;2024-01-30T01:07:20;1.00;99.90
3628;DHT22;1830;49.000;12.074;2024-01-30T01:09:47;0.90;99.90
3628;DHT22;1830;49.000;12.074;2024-01-30T01:12:14;0.80;99.90
3628;DHT22;1830;49.000;12.074;2024-01-30T01:14:41;0.80;99.90
3628;DHT22;1830;49.000;12.074;2024-01-30T01:17:08;0.70;99.90
3628;DHT22;1830;49.000;12.074;2024-01-30T01:19:35;0.70;99.90
3628;DHT22;1830;49.000;12.074;2024-01-30T01:22:03;0.80;99.90
3628;DHT22;1830;49.000;12.074;2024-01-30T01:24:31;0.80;99.90
3628;DHT22;1830;49.000;12.074;2024-01-30T01:26:58;0.70;99.90
3628;DHT22;1830;49.000;12.074;2024-01-30T01:29:25;0.70;99.90
3628;DHT22;1830;49.000;12.074;2024-01-30T01:31:54;0.70;99.90
3628;DHT22;1830;49.000;12.074;2024-01-30T01:34:21;0.80;99.90
3628;DHT22;1830;49.000;12.074;2024-01-30T01:36:48;0.70;99.90
3628;DHT22;1830;49.000;12.074;2024-01-30T01:39:16;0.70;99.90
3628;DHT22;1830;49.000;12.074;2024-01-30T01:41:43;0.70;99.90
3628;DHT22;1830;49.000;12.074;2024-01-30T01:44:10;0.80;99.90
3628;DHT22;1830;49.000;12.074;2024-01-30T01:46:37;0.80;99.90
3628;DHT22;1830;49.000;12.074;2024-01-30T01:49:05;0.80;99.90
3628;DHT22;1830;49.000;12.074;2024-01-30T01:51:35;0.80;99.90
3628;DHT22;1830;49.000;12.074;2024-01-30T01:54:03;0.90;99.90
3628;DHT22;1830;49.000;12.074;2024-01-30T01:56:33;0.90;99.90
3628;DHT22;1830;49.000;12.074;2024-01-30T01:59:04;0.90;99.90
3628;DHT22;1830;49.000;12.074;2024-01-30T02:01:32;0.80;99.90
3628;DHT22;1830;49.000;12.074;2024-01-30T02:03:59;0.80;99.90
3628;DHT22;1830;49.000;12.074;2024-01-30T02:06:26;0.80;99.90
3628;DHT22;1830;49.000;12.074;2024-01-30T02:08:54;0.80;99.90
3628;DHT22;1830;49.000;12.074;2024-01-30T02:11:21;0.80;99.90
3628;DHT22;1830;49.000;12.074;2024-01-30T02:13:50;0.80;99.90
3628;DHT22;1830;49.000;12.074;2024-01-30T02:16:17;0.80;99.90
3628;DHT22;1830;49.000;12.074;2024-01-30T02:18:44;0.80;99.90
3628;DHT22;1830;49.000;12.074;2024-01-30T02:21:15;0.80;99.90
3628;DHT22;1830;49.000;12.074;2024-01-30T02:23:43;0.80;99.90
3628;DHT22;1830;49.000;12.074;2024-01-30T02:26:10;0.80;99.90
3628;DHT22;1830;49.000;12.074;2024-01-30T02:28:37;0.80;99.90
3628;DHT22;1830;49.000;12.074;2024-01-30T02:31:04;0.70;99.90
3628;DHT22;1830;49.000;12.074;2024-01-30T02:33:31;0.70;99.90
3628;DHT22;1830;49.000;12.074;2024-01-30T02:35:58;0.70;99.90
3628;DHT22;1830;49.000;12.074;2024-01-30T02:38:26;0.70;99.90
3628;DHT22;1830;49.000;12.074;2024-01-30T02:40:54;0.70;99.90
3628;DHT22;1830;49.000;12.074;2024-01-30T02:43:21;0.70;99.90
3628;DHT22;1830;49.000;12.074;2024-01-30T02:45:47;0.80;99.90
3628;DHT22;1830;49.000;12.074;2024-01-30T02:48:14;0.70;99.90
3628;DHT22;1830;49.000;12.074;2024-01-30T02:50:41;0.70;99.90
3628;DHT22;1830;49.000;12.074;2024-01-30T02:53:08;0.70;99.90
3628;DHT22;1830;49.000;12.074;2024-01-30T02:55:36;0.70;99.90
3628;DHT22;1830;49.000;12.074;2024-01-30T02:58:03;0.70;99.90
3628;DHT22;1830;49.000;12.074;2024-01-30T03:00:30;0.60;99.90
3628;DHT22;1830;49.000;12.074;2024-01-30T03:02:57;0.60;99.90
3628;DHT22;1830;49.000;12.074;2024-01-30T03:05:23;0.60;99.90
3628;DHT22;1830;49.000;12.074;2024-01-30T03:07:50;0.50;99.90
3628;DHT22;1830;49.000;12.074;2024-01-30T03:10:17;0.40;99.90
3628;DHT22;1830;49.000;12.074;2024-01-30T03:12:45;0.40;99.90
3628;DHT22;1830;49.000;12.074;2024-01-30T03:15:12;0.40;99.90
3628;DHT22;1830;49.000;12.074;2024-01-30T03:17:39;0.40;99.90
3628;DHT22;1830;49.000;12.074;2024-01-30T03:20:06;0.30;99.90
3628;DHT22;1830;49.000;12.074;2024-01-30T03:22:34;0.30;99.90
3628;DHT22;1830;49.000;12.074;2024-01-30T03:25:01;0.10;99.90
3628;DHT22;1830;49.000;12.074;2024-01-30T03:27:28;0.00;99.90
3628;DHT22;1830;49.000;12.074;2024-01-30T03:29:56;0.10;99.90
3628;DHT22;1830;49.000;12.074;2024-01-30T03:32:23;0.20;99.90
3628;DHT22;1830;49.000;12.074;2024-01-30T03:34:50;0.20;99.90
3628;DHT22;1830;49.000;12.074;2024-01-30T03:37:17;0.20;99.90
3628;DHT22;1830;49.000;12.074;2024-01-30T03:39:43;0.20;99.90
3628;DHT22;1830;49.000;12.074;2024-01-30T03:42:10;0.20;99.90
3628;DHT22;1830;49.000;12.074;2024-01-30T03:44:37;0.20;99.90
3628;DHT22;1830;49.000;12.074;2024-01-30T03:47:05;0.20;99.90
3628;DHT22;1830;49.000;12.074;2024-01-30T03:49:32;0.20;99.90
3628;DHT22;1830;49.000;12.074;2024-01-30T03:51:59;0.20;99.90
3628;DHT22;1830;49.000;12.074;2024-01-30T03:54:27;0.20;99.90
3628;DHT22;1830;49.000;12.074;2024-01-30T03:56:56;0.10;99.90
3628;DHT22;1830;49.000;12.074;2024-01-30T03:59:23;0.10;99.90
3628;DHT22;1830;49.000;12.074;2024-01-30T04:01:50;0.00;99.90
3628;DHT22;1830;49.000;12.074;2024-01-30T04:04:18;0.00;99.90
3628;DHT22;1830;49.000;12.074;2024-01-30T04:06:45;-0.10;99.90
3628;DHT22;1830;49.000;12.074;2024-01-30T04:09:12;-0.10;99.90
3628;DHT22;1830;49.000;12.074;2024-01-30T04:11:40;-0.10;99.90
3628;DHT22;1830;49.000;12.074;2024-01-30T04:14:07;0.00;99.90
3628;DHT22;1830;49.000;12.074;2024-01-30T04:16:34;-0.10;99.90
3628;DHT22;1830;49.000;12.074;2024-01-30T04:19:01;-0.10;99.90
3628;DHT22;1830;49.000;12.074;2024-01-30T04:21:29;-0.20;99.90
3628;DHT22;1830;49.000;12.074;2024-01-30T04:23:56;-0.20;99.90
3628;DHT22;1830;49.000;12.074;2024-01-30T04:26:23;-0.20;99.90
3628;DHT22;1830;49.000;12.074;2024-01-30T04:28:51;-0.30;99.90
3628;DHT22;1830;49.000;12.074;2024-01-30T04:31:21;-0.30;99.90
3628;DHT22;1830;49.000;12.074;2024-01-30T04:33:48;-0.30;99.90
3628;DHT22;1830;49.000;12.074;2024-01-30T04:36:14;-0.40;99.90
3628;DHT22;1830;49.000;12.074;2024-01-30T04:38:43;-0.40;99.90
3628;DHT22;1830;49.000;12.074;2024-01-30T04:41:09;-0.40;99.90
3628;DHT22;1830;49.000;12.074;2024-01-30T04:43:36;-0.40;99.90
3628;DHT22;1830;49.000;12.074;2024-01-30T04:46:04;-0.40;99.90
3628;DHT22;1830;49.000;12.074;2024-01-30T04:48:30;-0.30;99.90
3628;DHT22;1830;49.000;12.074;2024-01-30T04:50:57;-0.30;99.90
3628;DHT22;1830;49.000;12.074;2024-01-30T04:53:27;-0.40;99.90
3628;DHT22;1830;49.000;12.074;2024-01-30T04:55:55;-0.40;99.90
3628;DHT22;1830;49.000;12.074;2024-01-30T04:58:21;-0.40;99.90
3628;DHT22;1830;49.000;12.074;2024-01-30T05:00:48;-0.40;99.90
3628;DHT22;1830;49.000;12.074;2024-01-30T05:03:17;-0.40;99.90
3628;DHT22;1830;49.000;12.074;2024-01-30T05:05:50;-0.40;99.90
3628;DHT22;1830;49.000;12.074;2024-01-30T05:08:27;-0.30;99.90
3628;DHT22;1830;49.000;12.074;2024-01-30T05:10:55;-0.30;99.90
3628;DHT22;1830;49.000;12.074;2024-01-30T05:13:22;-0.30;99.90
3628;DHT22;1830;49.000;12.074;2024-01-30T05:15:49;-0.30;99.90
3628;DHT22;1830;49.000;12.074;2024-01-30T05:18:15;-0.30;99.90
3628;DHT22;1830;49.000;12.074;2024-01-30T05:20:42;-0.20;99.90
3628;DHT22;1830;49.000;12.074;2024-01-30T05:23:09;0.10;99.90
3628;DHT22;1830;49.000;12.074;2024-01-30T05:25:36;0.20;99.90
3628;DHT22;1830;49.000;12.074;2024-01-30T05:28:05;0.20;99.90
3628;DHT22;1830;49.000;12.074;2024-01-30T05:30:31;0.20;99.90
3628;DHT22;1830;49.000;12.074;2024-01-30T05:32:58;0.10;99.90
3628;DHT22;1830;49.000;12.074;2024-01-30T05:35:26;0.10;99.90
3628;DHT22;1830;49.000;12.074;2024-01-30T05:37:53;0.10;99.90
3628;DHT22;1830;49.000;12.074;2024-01-30T05:40:20;0.10;99.90
3628;DHT22;1830;49.000;12.074;2024-01-30T05:42:47;0.10;99.90
3628;DHT22;1830;49.000;12.074;2024-01-30T05:45:16;0.10;99.90
3628;DHT22;1830;49.000;12.074;2024-01-30T05:47:43;0.10;99.90
3628;DHT22;1830;49.000;12.074;2024-01-30T05:50:09;0.00;99.90
3628;DHT22;1830;49.000;12.074;2024-01-30T05:52:36;0.00;99.90
3628;DHT22;1830;49.000;12.074;2024-01-30T05:55:04;0.10;99.90
3628;DHT22;1830;49.000;12.074;2024-01-30T05:57:31;0.10;99.90
3628;DHT22;1830;49.000;12.074;2024-01-30T05:59:58;0.10;99.90
3628;DHT22;1830;49.000;12.074;2024-01-30T06:02:26;0.10;99.90
3628;DHT22;1830;49.000;12.074;2024-01-30T06:04:53;0.10;99.90
3628;DHT22;1830;49.000;12.074;2024-01-30T06:07:19;0.00;99.90
3628;DHT22;1830;49.000;12.074;2024-01-30T06:09:47;0.00;99.90
3628;DHT22;1830;49.000;12.074;2024-01-30T06:12:14;0.00;99.90
3628;DHT22;1830;49.000;12.074;2024-01-30T06:14:41;0.00;99.90
3628;DHT22;1830;49.000;12.074;2024-01-30T06:17:08;0.00;99.90
3628;DHT22;1830;49.000;12.074;2024-01-30T06:19:36;-0.20;99.90
3628;DHT22;1830;49.000;12.074;2024-01-30T06:22:03;-0.50;99.90
3628;DHT22;1830;49.000;12.074;2024-01-30T06:24:30;-0.50;99.90
3628;DHT22;1830;49.000;12.074;2024-01-30T06:26:57;-0.40;99.90
3628;DHT22;1830;49.000;12.074;2024-01-30T06:29:24;-0.30;99.90
3628;DHT22;1830;49.000;12.074;2024-01-30T06:31:52;-0.30;99.90
3628;DHT22;1830;49.000;12.074;2024-01-30T06:34:19;-0.20;99.90
3628;DHT22;1830;49.000;12.074;2024-01-30T06:36:47;-0.30;99.90
3628;DHT22;1830;49.000;12.074;2024-01-30T06:39:13;-0.30;99.90
3628;DHT22;1830;49.000;12.074;2024-01-30T06:41:40;-0.30;99.90
3628;DHT22;1830;49.000;12.074;2024-01-30T06:44:07;-0.30;99.90
3628;DHT22;1830;49.000;12.074;2024-01-30T06:46:34;-0.30;99.90
3628;DHT22;1830;49.000;12.074;2024-01-30T06:49:02;-0.30;99.90
3628;DHT22;1830;49.000;12.074;2024-01-30T06:51:29;-0.20;99.90
3628;DHT22;1830;49.000;12.074;2024-01-30T06:53:57;-0.20;99.90
3628;DHT22;1830;49.000;12.074;2024-01-30T06:56:24;-0.20;99.90
3628;DHT22;1830;49.000;12.074;2024-01-30T06:58:51;-0.10;99.90
3628;DHT22;1830;49.000;12.074;2024-01-30T07:01:18;-0.10;99.90
3628;DHT22;1830;49.000;12.074;2024-01-30T07:03:44;-0.20;99.90
3628;DHT22;1830;49.000;12.074;2024-01-30T07:06:11;-0.20;99.90
3628;DHT22;1830;49.000;12.074;2024-01-30T07:08:38;-0.20;99.90
3628;DHT22;1830;49.000;12.074;2024-01-30T07:11:06;-0.20;99.90
3628;DHT22;1830;49.000;12.074;2024-01-30T07:13:34;-0.30;99.90
3628;DHT22;1830;49.000;12.074;2024-01-30T07:16:01;-0.20;99.90
3628;DHT22;1830;49.000;12.074;2024-01-30T07:18:28;-0.10;99.90
3628;DHT22;1830;49.000;12.074;2024-01-30T07:20:55;-0.10;99.90
3628;DHT22;1830;49.000;12.074;2024-01-30T07:23:22;-0.10;99.90
3628;DHT22;1830;49.000;12.074;2024-01-30T07:25:48;-0.10;99.90
3628;DHT22;1830;49.000;12.074;2024-01-30T07:28:16;0.00;99.90
3628;DHT22;1830;49.000;12.074;2024-01-30T07:30:43;0.00;99.90
3628;DHT22;1830;49.000;12.074;2024-01-30T07:33:10;0.00;99.90
3628;DHT22;1830;49.000;12.074;2024-01-30T07:35:38;0.00;99.90
3628;DHT22;1830;49.000;12.074;2024-01-30T07:38:05;-0.10;99.90
3628;DHT22;1830;49.000;12.074;2024-01-30T07:40:32;-0.20;99.90
3628;DHT22;1830;49.000;12.074;2024-01-30T07:42:59;-0.30;99.90
3628;DHT22;1830;49.000;12.074;2024-01-30T07:45:27;-0.20;99.90
3628;DHT22;1830;49.000;12.074;2024-01-30T07:48:04;-0.20;99.90
3628;DHT22;1830;49.000;12.074;2024-01-30T07:50:31;-0.20;99.90
3628;DHT22;1830;49.000;12.074;2024-01-30T07:52:59;-0.20;99.90
3628;DHT22;1830;49.000;12.074;2024-01-30T07:55:26;-0.40;99.90
3628;DHT22;1830;49.000;12.074;2024-01-30T07:57:54;-0.40;99.90
3628;DHT22;1830;49.000;12.074;2024-01-30T08:00:22;-0.30;99.90
3628;DHT22;1830;49.000;12.074;2024-01-30T08:02:50;-0.20;99.90
3628;DHT22;1830;49.000;12.074;2024-01-30T08:05:19;-0.10;99.90
3628;DHT22;1830;49.000;12.074;2024-01-30T08:07:51;-0.10;99.90
3628;DHT22;1830;49.000;12.074;2024-01-30T08:10:18;-0.20;99.90
3628;DHT22;1830;49.000;12.074;2024-01-30T08:12:45;-0.10;99.90
3628;DHT22;1830;49.000;12.074;2024-01-30T08:15:12;-0.10;99.90
3628;DHT22;1830;49.000;12.074;2024-01-30T08:17:40;-0.10;99.90
3628;DHT22;1830;49.000;12.074;2024-01-30T08:20:23;-0.10;99.90
3628;DHT22;1830;49.000;12.074;2024-01-30T08:22:50;0.00;99.90
3628;DHT22;1830;49.000;12.074;2024-01-30T08:25:17;0.10;99.90
3628;DHT22;1830;49.000;12.074;2024-01-30T08:27:44;0.20;99.90
3628;DHT22;1830;49.000;12.074;2024-01-30T08:30:12;0.30;99.90
3628;DHT22;1830;49.000;12.074;2024-01-30T08:32:38;0.30;99.90
3628;DHT22;1830;49.000;12.074;2024-01-30T08:35:06;0.30;99.90
3628;DHT22;1830;49.000;12.074;2024-01-30T08:37:35;0.20;99.90
3628;DHT22;1830;49.000;12.074;2024-01-30T08:40:17;0.30;99.90
3628;DHT22;1830;49.000;12.074;2024-01-30T08:42:44;0.30;99.90
3628;DHT22;1830;49.000;12.074;2024-01-30T08:45:11;0.40;99.90
3628;DHT22;1830;49.000;12.074;2024-01-30T08:47:38;0.30;99.90
3628;DHT22;1830;49.000;12.074;2024-01-30T08:50:06;0.30;99.90
3628;DHT22;1830;49.000;12.074;2024-01-30T08:52:35;0.30;99.90
3628;DHT22;1830;49.000;12.074;2024-01-30T08:55:02;0.30;99.90
3628;DHT22;1830;49.000;12.074;2024-01-30T08:57:30;0.40;99.90
3628;DHT22;1830;49.000;12.074;2024-01-30T08:59:56;0.40;99.90
3628;DHT22;1830;49.000;12.074;2024-01-30T09:02:23;0.40;99.90
3628;DHT22;1830;49.000;12.074;2024-01-30T09:04:50;0.50;99.90
3628;DHT22;1830;49.000;12.074;2024-01-30T09:07:17;0.50;99.90
3628;DHT22;1830;49.000;12.074;2024-01-30T09:09:45;0.50;99.90
3628;DHT22;1830;49.000;12.074;2024-01-30T09:12:12;0.40;99.90
3628;DHT22;1830;49.000;12.074;2024-01-30T09:14:40;0.50;99.90
3628;DHT22;1830;49.000;12.074;2024-01-30T09:17:07;0.50;99.90
3628;DHT22;1830;49.000;12.074;2024-01-30T09:19:33;0.50;99.90
3628;DHT22;1830;49.000;12.074;2024-01-30T09:22:00;0.70;99.90
3628;DHT22;1830;49.000;12.074;2024-01-30T09:24:27;0.80;99.90
3628;DHT22;1830;49.000;12.074;2024-01-30T09:26:56;0.90;99.90
3628;DHT22;1830;49.000;12.074;2024-01-30T09:29:22;0.90;99.90
3628;DHT22;1830;49.000;12.074;2024-01-30T09:31:49;0.90;99.90
3628;DHT22;1830;49.000;12.074;2024-01-30T09:34:16;1.00;99.90
3628;DHT22;1830;49.000;12.074;2024-01-30T09:36:43;1.00;99.90
3628;DHT22;1830;49.000;12.074;2024-01-30T09:39:12;1.10;99.90
3628;DHT22;1830;49.000;12.074;2024-01-30T09:41:45;1.00;99.90
3628;DHT22;1830;49.000;12.074;2024-01-30T09:44:15;1.10;99.90
3628;DHT22;1830;49.000;12.074;2024-01-30T09:46:43;1.10;99.90
3628;DHT22;1830;49.000;12.074;2024-01-30T09:49:10;1.10;99.90
3628;DHT22;1830;49.000;12.074;2024-01-30T09:51:38;1.10;99.90
3628;DHT22;1830;49.000;12.074;2024-01-30T09:54:05;1.20;99.90
3628;DHT22;1830;49.000;12.074;2024-01-30T09:56:33;1.20;99.90
3628;DHT22;1830;49.000;12.074;2024-01-30T09:58:59;1.30;99.90
3628;DHT22;1830;49.000;12.074;2024-01-30T10:01:28;1.30;99.90
3628;DHT22;1830;49.000;12.074;2024-01-30T10:03:55;1.40;99.90
3628;DHT22;1830;49.000;12.074;2024-01-30T10:06:24;1.50;99.90
3628;DHT22;1830;49.000;12.074;2024-01-30T10:08:51;1.50;99.90
3628;DHT22;1830;49.000;12.074;2024-01-30T10:11:18;1.50;99.90
3628;DHT22;1830;49.000;12.074;2024-01-30T10:13:45;1.60;99.90
3628;DHT22;1830;49.000;12.074;2024-01-30T10:16:14;1.70;99.90
3628;DHT22;1830;49.000;12.074;2024-01-30T10:18:43;1.70;99.90
3628;DHT22;1830;49.000;12.074;2024-01-30T10:21:10;1.80;99.90
3628;DHT22;1830;49.000;12.074;2024-01-30T10:23:38;1.70;99.90
3628;DHT22;1830;49.000;12.074;2024-01-30T10:26:06;1.70;99.90
3628;DHT22;1830;49.000;12.074;2024-01-30T10:28:33;1.60;99.90
3628;DHT22;1830;49.000;12.074;2024-01-30T10:31:00;1.70;99.90
3628;DHT22;1830;49.000;12.074;2024-01-30T10:33:29;1.80;99.90
3628;DHT22;1830;49.000;12.074;2024-01-30T10:36:00;1.80;99.90
3628;DHT22;1830;49.000;12.074;2024-01-30T10:38:29;1.80;99.90
3628;DHT22;1830;49.000;12.074;2024-01-30T10:40:56;1.80;99.90
3628;DHT22;1830;49.000;12.074;2024-01-30T10:43:24;1.80;99.90
3628;DHT22;1830;49.000;12.074;2024-01-30T10:45:57;1.80;99.90
3628;DHT22;1830;49.000;12.074;2024-01-30T10:48:30;1.90;99.90
3628;DHT22;1830;49.000;12.074;2024-01-30T10:51:02;1.90;99.90
3628;DHT22;1830;49.000;12.074;2024-01-30T10:53:31;1.90;99.90
3628;DHT22;1830;49.000;12.074;2024-01-30T10:55:59;1.90;99.90
3628;DHT22;1830;49.000;12.074;2024-01-30T10:58:28;2.00;99.90
3628;DHT22;1830;49.000;12.074;2024-01-30T11:00:55;2.10;99.90
3628;DHT22;1830;49.000;12.074;2024-01-30T11:03:22;2.00;99.90
3628;DHT22;1830;49.000;12.074;2024-01-30T11:05:49;2.00;99.90
3628;DHT22;1830;49.000;12.074;2024-01-30T11:08:24;2.10;99.90
3628;DHT22;1830;49.000;12.074;2024-01-30T11:10:55;2.10;99.90
3628;DHT22;1830;49.000;12.074;2024-01-30T11:13:22;2.10;99.90
3628;DHT22;1830;49.000;12.074;2024-01-30T11:15:52;2.20;99.90
3628;DHT22;1830;49.000;12.074;2024-01-30T11:18:25;2.20;99.90
3628;DHT22;1830;49.000;12.074;2024-01-30T11:20:52;2.10;99.90
3628;DHT22;1830;49.000;12.074;2024-01-30T11:23:23;2.30;99.90
3628;DHT22;1830;49.000;12.074;2024-01-30T11:25:52;2.30;99.90
3628;DHT22;1830;49.000;12.074;2024-01-30T11:28:21;2.40;99.90
3628;DHT22;1830;49.000;12.074;2024-01-30T11:30:48;2.50;99.90
3628;DHT22;1830;49.000;12.074;2024-01-30T11:33:27;2.60;99.90
3628;DHT22;1830;49.000;12.074;2024-01-30T11:35:57;2.60;99.90
3628;DHT22;1830;49.000;12.074;2024-01-30T11:38:26;2.60;99.90
3628;DHT22;1830;49.000;12.074;2024-01-30T11:40:54;2.60;99.90
3628;DHT22;1830;49.000;12.074;2024-01-30T11:43:22;2.70;99.90
3628;DHT22;1830;49.000;12.074;2024-01-30T11:45:49;2.70;99.90
3628;DHT22;1830;49.000;12.074;2024-01-30T11:48:26;2.70;99.90
3628;DHT22;1830;49.000;12.074;2024-01-30T11:50:54;2.90;99.90
3628;DHT22;1830;49.000;12.074;2024-01-30T11:53:21;2.90;99.90
3628;DHT22;1830;49.000;12.074;2024-01-30T11:55:51;3.00;99.90
3628;DHT22;1830;49.000;12.074;2024-01-30T11:58:24;3.00;99.90
3628;DHT22;1830;49.000;12.074;2024-01-30T12:00:55;3.10;99.90
3628;DHT22;1830;49.000;12.074;2024-01-30T12:03:22;3.10;99.90
3628;DHT22;1830;49.000;12.074;2024-01-30T12:05:58;3.20;99.90
3628;DHT22;1830;49.000;12.074;2024-01-30T12:08:25;3.30;99.90
3628;DHT22;1830;49.000;12.074;2024-01-30T12:10:58;3.40;99.90
3628;DHT22;1830;49.000;12.074;2024-01-30T12:13:27;3.40;99.90
3628;DHT22;1830;49.000;12.074;2024-01-30T12:15:54;3.40;99.90
3628;DHT22;1830;49.000;12.074;2024-01-30T12:18:21;3.40;99.90
3628;DHT22;1830;49.000;12.074;2024-01-30T12:20:57;3.40;99.90
3628;DHT22;1830;49.000;12.074;2024-01-30T12:23:24;3.50;99.90
3628;DHT22;1830;49.000;12.074;2024-01-30T12:25:51;3.50;99.90
3628;DHT22;1830;49.000;12.074;2024-01-30T12:28:20;3.50;99.90
3628;DHT22;1830;49.000;12.074;2024-01-30T12:30:47;3.50;99.90
3628;DHT22;1830;49.000;12.074;2024-01-30T12:33:16;3.70;99.90
3628;DHT22;1830;49.000;12.074;2024-01-30T12:35:45;3.70;99.90
3628;DHT22;1830;49.000;12.074;2024-01-30T12:38:13;3.80;99.90
3628;DHT22;1830;49.000;12.074;2024-01-30T12:40:40;3.80;99.90
3628;DHT22;1830;49.000;12.074;2024-01-30T12:43:07;3.80;99.90
3628;DHT22;1830;49.000;12.074;2024-01-30T12:45:36;3.90;99.90
3628;DHT22;1830;49.000;12.074;2024-01-30T12:48:03;4.00;99.90
3628;DHT22;1830;49.000;12.074;2024-01-30T12:50:30;4.00;99.90
3628;DHT22;1830;49.000;12.074;2024-01-30T12:52:57;4.00;99.90
3628;DHT22;1830;49.000;12.074;2024-01-30T12:55:24;4.10;99.90
3628;DHT22;1830;49.000;12.074;2024-01-30T12:57:53;4.10;99.90
3628;DHT22;1830;49.000;12.074;2024-01-30T13:00:21;4.10;99.90
3628;DHT22;1830;49.000;12.074;2024-01-30T13:02:49;4.20;99.90
3628;DHT22;1830;49.000;12.074;2024-01-30T13:05:16;4.30;99.90
3628;DHT22;1830;49.000;12.074;2024-01-30T13:07:43;4.30;99.90
3628;DHT22;1830;49.000;12.074;2024-01-30T13:10:09;4.30;99.90
3628;DHT22;1830;49.000;12.074;2024-01-30T13:12:36;4.20;99.90
3628;DHT22;1830;49.000;12.074;2024-01-30T13:15:04;4.30;99.90
3628;DHT22;1830;49.000;12.074;2024-01-30T13:17:31;4.30;99.90
3628;DHT22;1830;49.000;12.074;2024-01-30T13:20:00;4.30;99.90
3628;DHT22;1830;49.000;12.074;2024-01-30T13:22:26;4.30;99.90
3628;DHT22;1830;49.000;12.074;2024-01-30T13:24:53;4.30;99.90
3628;DHT22;1830;49.000;12.074;2024-01-30T13:27:20;4.30;99.90
3628;DHT22;1830;49.000;12.074;2024-01-30T13:29:47;4.30;99.90
3628;DHT22;1830;49.000;12.074;2024-01-30T13:32:14;4.40;99.90
3628;DHT22;1830;49.000;12.074;2024-01-30T13:34:41;4.40;99.90
3628;DHT22;1830;49.000;12.074;2024-01-30T13:37:09;4.40;99.90
3628;DHT22;1830;49.000;12.074;2024-01-30T13:39:36;4.50;99.90
3628;DHT22;1830;49.000;12.074;2024-01-30T13:42:04;4.40;99.90
3628;DHT22;1830;49.000;12.074;2024-01-30T13:44:31;4.40;99.90
3628;DHT22;1830;49.000;12.074;2024-01-30T13:46:58;4.40;99.90
3628;DHT22;1830;49.000;12.074;2024-01-30T13:49:25;4.40;99.90
3628;DHT22;1830;49.000;12.074;2024-01-30T13:51:52;4.40;99.90
3628;DHT22;1830;49.000;12.074;2024-01-30T13:54:32;4.30;99.90
3628;DHT22;1830;49.000;12.074;2024-01-30T13:56:59;4.30;99.90
3628;DHT22;1830;49.000;12.074;2024-01-30T13:59:25;4.30;99.90
3628;DHT22;1830;49.000;12.074;2024-01-30T14:01:52;4.30;99.90
3628;DHT22;1830;49.000;12.074;2024-01-30T14:04:19;4.30;99.90
3628;DHT22;1830;49.000;12.074;2024-01-30T14:06:46;4.20;99.90
3628;DHT22;1830;49.000;12.074;2024-01-30T14:09:13;4.30;99.90
3628;DHT22;1830;49.000;12.074;2024-01-30T14:11:42;4.30;99.90
3628;DHT22;1830;49.000;12.074;2024-01-30T14:14:09;4.40;99.90
3628;DHT22;1830;49.000;12.074;2024-01-30T14:16:36;4.40;99.90
3628;DHT22;1830;49.000;12.074;2024-01-30T14:19:02;4.40;99.90
3628;DHT22;1830;49.000;12.074;2024-01-30T14:21:30;4.40;99.90
3628;DHT22;1830;49.000;12.074;2024-01-30T14:23:57;4.30;99.90
3628;DHT22;1830;49.000;12.074;2024-01-30T14:26:24;4.30;99.90
3628;DHT22;1830;49.000;12.074;2024-01-30T14:28:52;4.30;99.90
3628;DHT22;1830;49.000;12.074;2024-01-30T14:31:20;4.20;99.90
3628;DHT22;1830;49.000;12.074;2024-01-30T14:33:49;4.20;99.90
3628;DHT22;1830;49.000;12.074;2024-01-30T14:36:17;4.20;99.90
3628;DHT22;1830;49.000;12.074;2024-01-30T14:38:43;4.10;99.90
3628;DHT22;1830;49.000;12.074;2024-01-30T14:41:10;4.00;99.90
3628;DHT22;1830;49.000;12.074;2024-01-30T14:43:37;4.10;99.90
3628;DHT22;1830;49.000;12.074;2024-01-30T14:46:05;4.00;99.90
3628;DHT22;1830;49.000;12.074;2024-01-30T14:48:34;4.00;99.90
3628;DHT22;1830;49.000;12.074;2024-01-30T14:51:01;4.00;99.90
3628;DHT22;1830;49.000;12.074;2024-01-30T14:53:28;4.10;99.90
3628;DHT22;1830;49.000;12.074;2024-01-30T14:55:55;4.10;99.90
3628;DHT22;1830;49.000;12.074;2024-01-30T14:58:24;4.20;99.90
3628;DHT22;1830;49.000;12.074;2024-01-30T15:00:51;4.10;99.90
3628;DHT22;1830;49.000;12.074;2024-01-30T15:03:19;4.20;99.90
3628;DHT22;1830;49.000;12.074;2024-01-30T15:05:46;4.10;99.90
3628;DHT22;1830;49.000;12.074;2024-01-30T15:08:13;4.10;99.90
3628;DHT22;1830;49.000;12.074;2024-01-30T15:10:39;4.10;99.90
3628;DHT22;1830;49.000;12.074;2024-01-30T15:13:06;4.10;99.90
3628;DHT22;1830;49.000;12.074;2024-01-30T15:15:33;4.10;99.90
3628;DHT22;1830;49.000;12.074;2024-01-30T15:18:00;4.10;99.90
3628;DHT22;1830;49.000;12.074;2024-01-30T15:20:28;4.10;99.90
3628;DHT22;1830;49.000;12.074;2024-01-30T15:22:56;4.20;99.90
3628;DHT22;1830;49.000;12.074;2024-01-30T15:25:23;4.10;99.90
3628;DHT22;1830;49.000;12.074;2024-01-30T15:27:50;4.10;99.90
3628;DHT22;1830;49.000;12.074;2024-01-30T15:30:19;4.10;99.90
3628;DHT22;1830;49.000;12.074;2024-01-30T15:32:46;4.10;99.90
3628;DHT22;1830;49.000;12.074;2024-01-30T15:35:13;4.10;99.90
3628;DHT22;1830;49.000;12.074;2024-01-30T15:37:41;4.10;99.90
3628;DHT22;1830;49.000;12.074;2024-01-30T15:40:10;4.00;99.90
3628;DHT22;1830;49.000;12.074;2024-01-30T15:42:37;4.00;99.90
3628;DHT22;1830;49.000;12.074;2024-01-30T15:45:04;4.00;99.90
3628;DHT22;1830;49.000;12.074;2024-01-30T15:47:32;4.00;99.90
3628;DHT22;1830;49.000;12.074;2024-01-30T15:49:58;4.00;99.90
3628;DHT22;1830;49.000;12.074;2024-01-30T15:52:26;3.90;99.90
3628;DHT22;1830;49.000;12.074;2024-01-30T15:54:54;3.90;99.90
3628;DHT22;1830;49.000;12.074;2024-01-30T15:57:21;3.90;99.90
3628;DHT22;1830;49.000;12.074;2024-01-30T15:59:48;3.90;99.90
3628;DHT22;1830;49.000;12.074;2024-01-30T16:02:15;3.90;99.90